EGOS

RAF Shawbury

Airport
ICAO code
EGOS
Summary
ICAO Region
EUR
ICAO Territory
Location

, England

Serving
Shawbury
Elevation
249 ft
Coordinates
52° 47' 53" N , 2° 40' 5" W
Metar
EGOS 222320Z AUTO 18009KT 9999 // BKN026/// 04/01 Q0982

Runways

Designator Length Width Surface Rops
5/23 1379 46 ASP No/No
18/36 1834 46 ASP No/No

Airport map

Aerial View

SKYbrary Partners:

Safety knowledge contributed by: